sensor_id;sensor_type;location;lat;lon;timestamp;temperature;humidity
2897;DHT22;1458;49.728;9.228;2024-03-23T00:53:39;6.80;99.90
2897;DHT22;1458;49.728;9.228;2024-03-23T00:56:07;6.80;99.90
2897;DHT22;1458;49.728;9.228;2024-03-23T00:58:33;6.90;99.90
2897;DHT22;1458;49.728;9.228;2024-03-23T01:01:00;7.00;99.90
2897;DHT22;1458;49.728;9.228;2024-03-23T01:03:29;6.90;99.90
2897;DHT22;1458;49.728;9.228;2024-03-23T01:05:59;6.80;99.90
2897;DHT22;1458;49.728;9.228;2024-03-23T01:08:25;6.80;99.90
2897;DHT22;1458;49.728;9.228;2024-03-23T01:10:58;6.80;99.90
2897;DHT22;1458;49.728;9.228;2024-03-23T01:13:25;6.80;99.90
2897;DHT22;1458;49.728;9.228;2024-03-23T01:15:54;6.80;99.90
2897;DHT22;1458;49.728;9.228;2024-03-23T01:18:22;6.80;99.90
2897;DHT22;1458;49.728;9.228;2024-03-23T01:20:52;6.80;99.90
2897;DHT22;1458;49.728;9.228;2024-03-23T01:23:18;6.60;99.90
2897;DHT22;1458;49.728;9.228;2024-03-23T01:25:51;6.70;99.90
2897;DHT22;1458;49.728;9.228;2024-03-23T01:28:20;6.70;99.90
2897;DHT22;1458;49.728;9.228;2024-03-23T01:30:48;6.60;99.90
2897;DHT22;1458;49.728;9.228;2024-03-23T01:33:15;6.50;99.90
2897;DHT22;1458;49.728;9.228;2024-03-23T01:35:43;6.50;99.90
2897;DHT22;1458;49.728;9.228;2024-03-23T01:38:09;6.50;99.90
2897;DHT22;1458;49.728;9.228;2024-03-23T01:40:37;6.50;99.90
2897;DHT22;1458;49.728;9.228;2024-03-23T01:43:04;6.50;99.90
2897;DHT22;1458;49.728;9.228;2024-03-23T01:45:35;6.50;99.90
2897;DHT22;1458;49.728;9.228;2024-03-23T01:48:02;6.50;99.90
2897;DHT22;1458;49.728;9.228;2024-03-23T01:50:31;6.50;99.90
2897;DHT22;1458;49.728;9.228;2024-03-23T01:53:00;6.50;99.90
2897;DHT22;1458;49.728;9.228;2024-03-23T01:55:31;6.60;99.90
2897;DHT22;1458;49.728;9.228;2024-03-23T01:57:58;6.60;99.90
2897;DHT22;1458;49.728;9.228;2024-03-23T02:00:25;6.80;99.90
2897;DHT22;1458;49.728;9.228;2024-03-23T02:02:55;6.90;99.90
2897;DHT22;1458;49.728;9.228;2024-03-23T02:05:22;6.90;99.90
2897;DHT22;1458;49.728;9.228;2024-03-23T02:07:49;7.00;99.90
2897;DHT22;1458;49.728;9.228;2024-03-23T02:10:18;7.00;99.90
2897;DHT22;1458;49.728;9.228;2024-03-23T02:12:44;7.00;99.90
2897;DHT22;1458;49.728;9.228;2024-03-23T02:15:12;7.00;99.90
2897;DHT22;1458;49.728;9.228;2024-03-23T02:17:39;7.10;99.90
2897;DHT22;1458;49.728;9.228;2024-03-23T02:20:08;7.10;99.90
2897;DHT22;1458;49.728;9.228;2024-03-23T02:22:38;7.20;99.90
2897;DHT22;1458;49.728;9.228;2024-03-23T02:25:07;7.20;99.90
2897;DHT22;1458;49.728;9.228;2024-03-23T02:27:33;7.30;99.90
2897;DHT22;1458;49.728;9.228;2024-03-23T02:30:01;7.40;99.90
2897;DHT22;1458;49.728;9.228;2024-03-23T02:32:28;7.40;99.90
2897;DHT22;1458;49.728;9.228;2024-03-23T02:34:56;7.50;99.90
2897;DHT22;1458;49.728;9.228;2024-03-23T02:37:22;7.50;99.90
2897;DHT22;1458;49.728;9.228;2024-03-23T02:39:49;7.40;99.90
2897;DHT22;1458;49.728;9.228;2024-03-23T02:42:17;7.50;99.90
2897;DHT22;1458;49.728;9.228;2024-03-23T02:44:45;7.40;99.90
2897;DHT22;1458;49.728;9.228;2024-03-23T02:47:11;7.40;99.90
2897;DHT22;1458;49.728;9.228;2024-03-23T02:49:38;7.50;99.90
2897;DHT22;1458;49.728;9.228;2024-03-23T02:52:05;7.50;99.90
2897;DHT22;1458;49.728;9.228;2024-03-23T02:54:32;7.70;99.90
2897;DHT22;1458;49.728;9.228;2024-03-23T02:56:59;7.80;99.90
2897;DHT22;1458;49.728;9.228;2024-03-23T02:59:27;8.00;99.90
2897;DHT22;1458;49.728;9.228;2024-03-23T03:01:54;8.00;99.90
2897;DHT22;1458;49.728;9.228;2024-03-23T03:04:21;8.00;99.90
2897;DHT22;1458;49.728;9.228;2024-03-23T03:06:48;8.20;99.90
2897;DHT22;1458;49.728;9.228;2024-03-23T03:09:16;8.20;99.90
2897;DHT22;1458;49.728;9.228;2024-03-23T03:11:42;8.30;99.90
2897;DHT22;1458;49.728;9.228;2024-03-23T03:14:09;8.30;99.90
2897;DHT22;1458;49.728;9.228;2024-03-23T03:16:37;8.30;99.90
2897;DHT22;1458;49.728;9.228;2024-03-23T03:19:04;8.30;99.90
2897;DHT22;1458;49.728;9.228;2024-03-23T03:21:32;8.20;99.90
2897;DHT22;1458;49.728;9.228;2024-03-23T03:23:59;8.30;99.90
2897;DHT22;1458;49.728;9.228;2024-03-23T03:26:25;8.20;99.90
2897;DHT22;1458;49.728;9.228;2024-03-23T03:28:53;8.20;99.90
2897;DHT22;1458;49.728;9.228;2024-03-23T03:31:19;8.40;99.90
2897;DHT22;1458;49.728;9.228;2024-03-23T03:33:49;8.50;99.90
2897;DHT22;1458;49.728;9.228;2024-03-23T03:36:16;8.50;99.90
2897;DHT22;1458;49.728;9.228;2024-03-23T03:38:44;8.50;99.90
2897;DHT22;1458;49.728;9.228;2024-03-23T03:41:10;8.50;99.90
2897;DHT22;1458;49.728;9.228;2024-03-23T03:43:37;8.60;99.90
2897;DHT22;1458;49.728;9.228;2024-03-23T03:46:04;8.70;99.90
2897;DHT22;1458;49.728;9.228;2024-03-23T03:48:33;8.50;99.90
2897;DHT22;1458;49.728;9.228;2024-03-23T03:51:01;8.40;99.90
2897;DHT22;1458;49.728;9.228;2024-03-23T03:53:29;8.30;99.90
2897;DHT22;1458;49.728;9.228;2024-03-23T03:55:56;8.30;99.90
2897;DHT22;1458;49.728;9.228;2024-03-23T03:58:23;8.20;99.90
2897;DHT22;1458;49.728;9.228;2024-03-23T04:00:50;8.20;99.90
2897;DHT22;1458;49.728;9.228;2024-03-23T04:03:17;8.30;99.90
2897;DHT22;1458;49.728;9.228;2024-03-23T04:05:47;8.40;99.90
2897;DHT22;1458;49.728;9.228;2024-03-23T04:08:19;8.40;99.90
2897;DHT22;1458;49.728;9.228;2024-03-23T04:10:46;8.40;99.90
2897;DHT22;1458;49.728;9.228;2024-03-23T04:13:13;8.40;99.90
2897;DHT22;1458;49.728;9.228;2024-03-23T04:15:40;8.50;99.90
2897;DHT22;1458;49.728;9.228;2024-03-23T04:18:07;8.60;99.90
2897;DHT22;1458;49.728;9.228;2024-03-23T04:20:34;8.50;99.90
2897;DHT22;1458;49.728;9.228;2024-03-23T04:23:01;8.60;99.90
2897;DHT22;1458;49.728;9.228;2024-03-23T04:25:30;8.70;99.90
2897;DHT22;1458;49.728;9.228;2024-03-23T04:27:58;8.60;99.90
2897;DHT22;1458;49.728;9.228;2024-03-23T04:30:24;8.70;99.90
2897;DHT22;1458;49.728;9.228;2024-03-23T04:32:54;8.80;99.90
2897;DHT22;1458;49.728;9.228;2024-03-23T04:35:20;8.80;99.90
2897;DHT22;1458;49.728;9.228;2024-03-23T04:37:50;8.90;99.90
2897;DHT22;1458;49.728;9.228;2024-03-23T04:40:18;9.00;99.90
2897;DHT22;1458;49.728;9.228;2024-03-23T04:42:47;9.30;99.90
2897;DHT22;1458;49.728;9.228;2024-03-23T04:45:15;9.60;99.90
2897;DHT22;1458;49.728;9.228;2024-03-23T04:47:42;9.70;99.90
2897;DHT22;1458;49.728;9.228;2024-03-23T04:50:10;10.10;99.90
2897;DHT22;1458;49.728;9.228;2024-03-23T04:52:37;10.60;97.40
2897;DHT22;1458;49.728;9.228;2024-03-23T04:55:05;10.70;96.20
2897;DHT22;1458;49.728;9.228;2024-03-23T04:57:32;10.90;94.40
2897;DHT22;1458;49.728;9.228;2024-03-23T05:00:00;10.90;94.10
2897;DHT22;1458;49.728;9.228;2024-03-23T05:02:29;11.10;92.20
2897;DHT22;1458;49.728;9.228;2024-03-23T05:04:58;11.40;90.10
2897;DHT22;1458;49.728;9.228;2024-03-23T05:07:24;11.40;90.30
2897;DHT22;1458;49.728;9.228;2024-03-23T05:09:51;11.40;89.90
2897;DHT22;1458;49.728;9.228;2024-03-23T05:12:18;11.50;87.90
2897;DHT22;1458;49.728;9.228;2024-03-23T05:14:45;11.40;88.90
2897;DHT22;1458;49.728;9.228;2024-03-23T05:17:13;11.40;88.90
2897;DHT22;1458;49.728;9.228;2024-03-23T05:19:40;11.40;90.60
2897;DHT22;1458;49.728;9.228;2024-03-23T05:22:07;11.30;91.20
2897;DHT22;1458;49.728;9.228;2024-03-23T05:24:34;11.20;91.80
2897;DHT22;1458;49.728;9.228;2024-03-23T05:27:00;10.90;95.40
2897;DHT22;1458;49.728;9.228;2024-03-23T05:29:28;10.60;99.30
2897;DHT22;1458;49.728;9.228;2024-03-23T05:31:55;10.30;99.90
2897;DHT22;1458;49.728;9.228;2024-03-23T05:34:24;10.10;99.90
2897;DHT22;1458;49.728;9.228;2024-03-23T05:36:51;10.00;99.90
2897;DHT22;1458;49.728;9.228;2024-03-23T05:39:18;10.00;99.90
2897;DHT22;1458;49.728;9.228;2024-03-23T05:41:47;10.00;99.90
2897;DHT22;1458;49.728;9.228;2024-03-23T05:44:15;10.00;99.90
2897;DHT22;1458;49.728;9.228;2024-03-23T05:46:41;10.00;99.90
2897;DHT22;1458;49.728;9.228;2024-03-23T05:49:15;9.90;99.90
2897;DHT22;1458;49.728;9.228;2024-03-23T05:51:43;9.60;99.90
2897;DHT22;1458;49.728;9.228;2024-03-23T05:54:10;9.30;99.90
2897;DHT22;1458;49.728;9.228;2024-03-23T05:56:36;9.20;99.90
2897;DHT22;1458;49.728;9.228;2024-03-23T05:59:04;9.00;99.90
2897;DHT22;1458;49.728;9.228;2024-03-23T06:01:30;9.00;99.90
2897;DHT22;1458;49.728;9.228;2024-03-23T06:03:58;8.80;99.90
2897;DHT22;1458;49.728;9.228;2024-03-23T06:06:27;8.80;99.90
2897;DHT22;1458;49.728;9.228;2024-03-23T06:08:57;8.60;99.90
2897;DHT22;1458;49.728;9.228;2024-03-23T06:11:23;8.50;99.90
2897;DHT22;1458;49.728;9.228;2024-03-23T06:13:52;8.30;99.90
2897;DHT22;1458;49.728;9.228;2024-03-23T06:16:18;8.20;99.90
2897;DHT22;1458;49.728;9.228;2024-03-23T06:18:49;8.10;99.90
2897;DHT22;1458;49.728;9.228;2024-03-23T06:21:15;8.00;99.90
2897;DHT22;1458;49.728;9.228;2024-03-23T06:23:43;8.00;99.90
2897;DHT22;1458;49.728;9.228;2024-03-23T06:26:15;8.00;99.90
2897;DHT22;1458;49.728;9.228;2024-03-23T06:28:42;8.00;99.90
2897;DHT22;1458;49.728;9.228;2024-03-23T06:31:09;8.00;99.90
2897;DHT22;1458;49.728;9.228;2024-03-23T06:33:37;7.90;99.90
2897;DHT22;1458;49.728;9.228;2024-03-23T06:36:04;7.90;99.90
2897;DHT22;1458;49.728;9.228;2024-03-23T06:38:32;7.90;99.90
2897;DHT22;1458;49.728;9.228;2024-03-23T06:40:59;7.90;99.90
2897;DHT22;1458;49.728;9.228;2024-03-23T06:43:31;8.00;99.90
2897;DHT22;1458;49.728;9.228;2024-03-23T06:45:57;7.90;99.90
2897;DHT22;1458;49.728;9.228;2024-03-23T06:48:24;7.90;99.90
2897;DHT22;1458;49.728;9.228;2024-03-23T06:50:55;7.80;99.90
2897;DHT22;1458;49.728;9.228;2024-03-23T06:53:23;7.90;99.90
2897;DHT22;1458;49.728;9.228;2024-03-23T06:55:51;7.90;99.90
2897;DHT22;1458;49.728;9.228;2024-03-23T06:58:19;7.90;99.90
2897;DHT22;1458;49.728;9.228;2024-03-23T07:00:47;7.90;99.90
2897;DHT22;1458;49.728;9.228;2024-03-23T07:03:15;7.90;99.90
2897;DHT22;1458;49.728;9.228;2024-03-23T07:05:42;8.00;99.90
2897;DHT22;1458;49.728;9.228;2024-03-23T07:08:09;8.10;99.90
2897;DHT22;1458;49.728;9.228;2024-03-23T07:10:39;8.10;99.90
2897;DHT22;1458;49.728;9.228;2024-03-23T07:13:06;8.00;99.30
2897;DHT22;1458;49.728;9.228;2024-03-23T07:15:33;8.00;99.00
2897;DHT22;1458;49.728;9.228;2024-03-23T07:18:02;8.00;98.40
2897;DHT22;1458;49.728;9.228;2024-03-23T07:20:29;8.00;99.90
2897;DHT22;1458;49.728;9.228;2024-03-23T07:22:57;8.20;99.20
2897;DHT22;1458;49.728;9.228;2024-03-23T07:25:23;8.30;97.30
2897;DHT22;1458;49.728;9.228;2024-03-23T07:27:53;8.40;96.60
2897;DHT22;1458;49.728;9.228;2024-03-23T07:30:19;8.50;95.10
2897;DHT22;1458;49.728;9.228;2024-03-23T07:32:47;8.40;94.70
2897;DHT22;1458;49.728;9.228;2024-03-23T07:35:15;8.50;95.40
2897;DHT22;1458;49.728;9.228;2024-03-23T07:37:43;8.50;95.70
2897;DHT22;1458;49.728;9.228;2024-03-23T07:40:10;8.40;94.80
2897;DHT22;1458;49.728;9.228;2024-03-23T07:42:38;8.30;95.10
2897;DHT22;1458;49.728;9.228;2024-03-23T07:45:05;8.20;92.50
2897;DHT22;1458;49.728;9.228;2024-03-23T07:47:33;8.20;92.70
2897;DHT22;1458;49.728;9.228;2024-03-23T07:49:59;8.20;91.70
2897;DHT22;1458;49.728;9.228;2024-03-23T07:52:29;8.30;92.90
2897;DHT22;1458;49.728;9.228;2024-03-23T07:54:56;8.60;90.60
2897;DHT22;1458;49.728;9.228;2024-03-23T07:57:23;8.80;90.00
2897;DHT22;1458;49.728;9.228;2024-03-23T07:59:50;9.00;88.00
2897;DHT22;1458;49.728;9.228;2024-03-23T08:02:17;9.00;86.70
2897;DHT22;1458;49.728;9.228;2024-03-23T08:04:44;8.90;87.60
2897;DHT22;1458;49.728;9.228;2024-03-23T08:07:11;8.70;86.90
2897;DHT22;1458;49.728;9.228;2024-03-23T08:09:39;8.80;86.10
2897;DHT22;1458;49.728;9.228;2024-03-23T08:12:07;8.70;83.40
2897;DHT22;1458;49.728;9.228;2024-03-23T08:14:35;8.70;86.00
2897;DHT22;1458;49.728;9.228;2024-03-23T08:17:02;8.80;83.20
2897;DHT22;1458;49.728;9.228;2024-03-23T08:19:28;8.70;80.70
2897;DHT22;1458;49.728;9.228;2024-03-23T08:21:56;8.60;81.60
2897;DHT22;1458;49.728;9.228;2024-03-23T08:24:22;8.60;78.60
2897;DHT22;1458;49.728;9.228;2024-03-23T08:26:51;8.50;79.00
2897;DHT22;1458;49.728;9.228;2024-03-23T08:29:17;8.50;79.40
2897;DHT22;1458;49.728;9.228;2024-03-23T08:31:45;8.50;77.50
2897;DHT22;1458;49.728;9.228;2024-03-23T08:34:11;8.40;76.80
2897;DHT22;1458;49.728;9.228;2024-03-23T08:36:39;8.20;77.80
2897;DHT22;1458;49.728;9.228;2024-03-23T08:39:05;8.00;77.20
2897;DHT22;1458;49.728;9.228;2024-03-23T08:41:32;8.10;77.70
2897;DHT22;1458;49.728;9.228;2024-03-23T08:44:00;8.10;77.00
2897;DHT22;1458;49.728;9.228;2024-03-23T08:46:28;8.30;75.20
2897;DHT22;1458;49.728;9.228;2024-03-23T08:48:54;8.40;74.00
2897;DHT22;1458;49.728;9.228;2024-03-23T08:51:21;8.60;73.80
2897;DHT22;1458;49.728;9.228;2024-03-23T08:53:48;8.80;73.70
2897;DHT22;1458;49.728;9.228;2024-03-23T08:56:15;8.90;73.50
2897;DHT22;1458;49.728;9.228;2024-03-23T08:58:42;9.20;69.50
2897;DHT22;1458;49.728;9.228;2024-03-23T09:01:11;9.20;67.70
2897;DHT22;1458;49.728;9.228;2024-03-23T09:03:39;9.20;68.40
2897;DHT22;1458;49.728;9.228;2024-03-23T09:06:07;9.20;68.60
2897;DHT22;1458;49.728;9.228;2024-03-23T09:08:34;9.30;66.90
2897;DHT22;1458;49.728;9.228;2024-03-23T09:11:04;9.20;68.50
2897;DHT22;1458;49.728;9.228;2024-03-23T09:13:32;9.10;66.40
2897;DHT22;1458;49.728;9.228;2024-03-23T09:15:59;9.00;68.10
2897;DHT22;1458;49.728;9.228;2024-03-23T09:18:27;9.20;68.20
2897;DHT22;1458;49.728;9.228;2024-03-23T09:20:57;9.40;66.90
2897;DHT22;1458;49.728;9.228;2024-03-23T09:23:24;9.60;66.00
2897;DHT22;1458;49.728;9.228;2024-03-23T09:25:51;9.60;65.90
2897;DHT22;1458;49.728;9.228;2024-03-23T09:28:18;9.60;65.10
2897;DHT22;1458;49.728;9.228;2024-03-23T09:30:45;10.00;66.70
2897;DHT22;1458;49.728;9.228;2024-03-23T09:33:12;10.50;67.50
2897;DHT22;1458;49.728;9.228;2024-03-23T09:35:42;10.70;64.80
2897;DHT22;1458;49.728;9.228;2024-03-23T09:38:10;10.60;67.10
2897;DHT22;1458;49.728;9.228;2024-03-23T09:40:40;10.70;66.20
2897;DHT22;1458;49.728;9.228;2024-03-23T09:43:08;10.70;61.00
2897;DHT22;1458;49.728;9.228;2024-03-23T09:45:38;10.40;62.60
2897;DHT22;1458;49.728;9.228;2024-03-23T09:48:07;10.50;61.70
2897;DHT22;1458;49.728;9.228;2024-03-23T09:50:36;10.60;60.90
2897;DHT22;1458;49.728;9.228;2024-03-23T09:53:06;10.30;60.70
2897;DHT22;1458;49.728;9.228;2024-03-23T09:55:35;10.20;61.40
2897;DHT22;1458;49.728;9.228;2024-03-23T09:58:01;10.40;57.30
2897;DHT22;1458;49.728;9.228;2024-03-23T10:00:30;10.20;55.80
2897;DHT22;1458;49.728;9.228;2024-03-23T10:02:57;9.90;60.60
2897;DHT22;1458;49.728;9.228;2024-03-23T10:05:28;10.40;60.70
2897;DHT22;1458;49.728;9.228;2024-03-23T10:07:55;10.80;59.50
2897;DHT22;1458;49.728;9.228;2024-03-23T10:10:25;10.60;53.80
2897;DHT22;1458;49.728;9.228;2024-03-23T10:12:52;10.30;54.40
2897;DHT22;1458;49.728;9.228;2024-03-23T10:15:21;10.20;53.00
2897;DHT22;1458;49.728;9.228;2024-03-23T10:17:49;10.50;51.20
2897;DHT22;1458;49.728;9.228;2024-03-23T10:20:19;10.50;53.50
2897;DHT22;1458;49.728;9.228;2024-03-23T10:22:48;10.50;54.10
2897;DHT22;1458;49.728;9.228;2024-03-23T10:25:15;10.50;51.40
2897;DHT22;1458;49.728;9.228;2024-03-23T10:27:43;10.50;53.10
2897;DHT22;1458;49.728;9.228;2024-03-23T10:30:12;10.40;47.70
2897;DHT22;1458;49.728;9.228;2024-03-23T10:32:40;10.40;50.00
2897;DHT22;1458;49.728;9.228;2024-03-23T10:35:15;10.80;53.00
2897;DHT22;1458;49.728;9.228;2024-03-23T10:37:44;10.90;51.70
2897;DHT22;1458;49.728;9.228;2024-03-23T10:40:13;10.90;49.60
2897;DHT22;1458;49.728;9.228;2024-03-23T10:42:40;10.90;48.30
2897;DHT22;1458;49.728;9.228;2024-03-23T10:45:09;10.90;48.30
2897;DHT22;1458;49.728;9.228;2024-03-23T10:47:36;11.00;47.10
2897;DHT22;1458;49.728;9.228;2024-03-23T10:50:05;11.10;47.10
2897;DHT22;1458;49.728;9.228;2024-03-23T10:52:32;11.10;46.30
2897;DHT22;1458;49.728;9.228;2024-03-23T10:55:01;11.00;42.20
2897;DHT22;1458;49.728;9.228;2024-03-23T10:57:34;10.80;43.30
2897;DHT22;1458;49.728;9.228;2024-03-23T11:00:09;10.90;41.70
2897;DHT22;1458;49.728;9.228;2024-03-23T11:02:38;10.90;37.80
2897;DHT22;1458;49.728;9.228;2024-03-23T11:05:28;11.00;41.70
2897;DHT22;1458;49.728;9.228;2024-03-23T11:07:55;11.20;43.10
2897;DHT22;1458;49.728;9.228;2024-03-23T11:10:26;11.30;41.10
2897;DHT22;1458;49.728;9.228;2024-03-23T11:12:55;11.30;41.80
2897;DHT22;1458;49.728;9.228;2024-03-23T11:15:24;10.90;37.00
2897;DHT22;1458;49.728;9.228;2024-03-23T11:18:08;10.50;39.80
2897;DHT22;1458;49.728;9.228;2024-03-23T11:20:38;10.20;41.00
2897;DHT22;1458;49.728;9.228;2024-03-23T11:23:04;10.00;41.60
2897;DHT22;1458;49.728;9.228;2024-03-23T11:25:33;9.90;43.70
2897;DHT22;1458;49.728;9.228;2024-03-23T11:28:10;10.10;42.60
2897;DHT22;1458;49.728;9.228;2024-03-23T11:30:40;10.40;41.30
2897;DHT22;1458;49.728;9.228;2024-03-23T11:33:06;10.60;38.00
2897;DHT22;1458;49.728;9.228;2024-03-23T11:35:37;10.80;39.60
2897;DHT22;1458;49.728;9.228;2024-03-23T11:38:07;11.10;41.10
2897;DHT22;1458;49.728;9.228;2024-03-23T11:40:36;11.60;40.50
2897;DHT22;1458;49.728;9.228;2024-03-23T11:43:04;11.80;35.50
2897;DHT22;1458;49.728;9.228;2024-03-23T11:45:37;11.70;38.30
2897;DHT22;1458;49.728;9.228;2024-03-23T11:48:09;11.30;34.70
2897;DHT22;1458;49.728;9.228;2024-03-23T11:50:38;11.00;37.70
2897;DHT22;1458;49.728;9.228;2024-03-23T11:53:13;10.40;40.70
2897;DHT22;1458;49.728;9.228;2024-03-23T11:55:46;9.50;52.80
2897;DHT22;1458;49.728;9.228;2024-03-23T11:58:14;8.60;66.00
2897;DHT22;1458;49.728;9.228;2024-03-23T12:00:41;7.90;74.20
2897;DHT22;1458;49.728;9.228;2024-03-23T12:03:10;7.90;78.10
2897;DHT22;1458;49.728;9.228;2024-03-23T12:05:37;7.80;78.10
2897;DHT22;1458;49.728;9.228;2024-03-23T12:08:21;8.00;83.40
2897;DHT22;1458;49.728;9.228;2024-03-23T12:10:51;7.90;83.50
2897;DHT22;1458;49.728;9.228;2024-03-23T12:13:19;7.70;80.30
2897;DHT22;1458;49.728;9.228;2024-03-23T12:15:49;7.70;79.30
2897;DHT22;1458;49.728;9.228;2024-03-23T12:18:18;7.70;84.90
2897;DHT22;1458;49.728;9.228;2024-03-23T12:20:51;8.00;82.10
2897;DHT22;1458;49.728;9.228;2024-03-23T12:23:17;8.30;78.90
2897;DHT22;1458;49.728;9.228;2024-03-23T12:25:49;8.60;74.00
2897;DHT22;1458;49.728;9.228;2024-03-23T12:28:15;8.80;73.40
2897;DHT22;1458;49.728;9.228;2024-03-23T12:30:43;9.00;71.90
2897;DHT22;1458;49.728;9.228;2024-03-23T12:33:09;9.00;68.30
2897;DHT22;1458;49.728;9.228;2024-03-23T12:35:38;9.00;70.20
2897;DHT22;1458;49.728;9.228;2024-03-23T12:38:04;8.90;68.00
2897;DHT22;1458;49.728;9.228;2024-03-23T12:40:33;9.10;68.80
2897;DHT22;1458;49.728;9.228;2024-03-23T12:42:59;9.10;65.80
2897;DHT22;1458;49.728;9.228;2024-03-23T12:45:26;9.20;64.20
2897;DHT22;1458;49.728;9.228;2024-03-23T12:47:53;9.10;64.70
2897;DHT22;1458;49.728;9.228;2024-03-23T12:50:21;9.10;65.10
2897;DHT22;1458;49.728;9.228;2024-03-23T12:52:49;9.10;63.60
2897;DHT22;1458;49.728;9.228;2024-03-23T12:55:17;8.90;62.60
2897;DHT22;1458;49.728;9.228;2024-03-23T12:57:43;9.10;64.70
2897;DHT22;1458;49.728;9.228;2024-03-23T13:00:12;9.40;65.40
2897;DHT22;1458;49.728;9.228;2024-03-23T13:02:41;9.70;64.00
2897;DHT22;1458;49.728;9.228;2024-03-23T13:05:09;9.90;62.00
2897;DHT22;1458;49.728;9.228;2024-03-23T13:07:35;10.10;62.10
2897;DHT22;1458;49.728;9.228;2024-03-23T13:10:06;10.20;60.60
2897;DHT22;1458;49.728;9.228;2024-03-23T13:12:33;10.30;60.50
2897;DHT22;1458;49.728;9.228;2024-03-23T13:15:01;10.60;57.90
2897;DHT22;1458;49.728;9.228;2024-03-23T13:17:27;10.80;55.10
2897;DHT22;1458;49.728;9.228;2024-03-23T13:19:55;10.90;52.60
2897;DHT22;1458;49.728;9.228;2024-03-23T13:22:21;10.90;54.30
2897;DHT22;1458;49.728;9.228;2024-03-23T13:24:49;11.20;55.10
2897;DHT22;1458;49.728;9.228;2024-03-23T13:27:17;11.20;52.40
2897;DHT22;1458;49.728;9.228;2024-03-23T13:29:45;11.40;51.90
2897;DHT22;1458;49.728;9.228;2024-03-23T13:32:12;11.00;50.50
2897;DHT22;1458;49.728;9.228;2024-03-23T13:34:40;10.50;52.50
2897;DHT22;1458;49.728;9.228;2024-03-23T13:37:06;10.30;55.60
2897;DHT22;1458;49.728;9.228;2024-03-23T13:39:35;10.20;57.50
2897;DHT22;1458;49.728;9.228;2024-03-23T13:42:02;10.30;56.10
2897;DHT22;1458;49.728;9.228;2024-03-23T13:44:31;10.30;55.50
2897;DHT22;1458;49.728;9.228;2024-03-23T13:46:58;10.50;57.20
2897;DHT22;1458;49.728;9.228;2024-03-23T13:49:26;10.50;56.00
2897;DHT22;1458;49.728;9.228;2024-03-23T13:51:54;10.40;55.90
2897;DHT22;1458;49.728;9.228;2024-03-23T13:54:21;10.30;51.60
2897;DHT22;1458;49.728;9.228;2024-03-23T13:56:48;10.10;54.70
2897;DHT22;1458;49.728;9.228;2024-03-23T13:59:16;10.30;54.10
2897;DHT22;1458;49.728;9.228;2024-03-23T14:01:44;10.40;54.00
2897;DHT22;1458;49.728;9.228;2024-03-23T14:04:12;10.70;53.20
2897;DHT22;1458;49.728;9.228;2024-03-23T14:06:39;10.60;52.40
2897;DHT22;1458;49.728;9.228;2024-03-23T14:09:07;10.40;51.40
2897;DHT22;1458;49.728;9.228;2024-03-23T14:11:34;10.40;51.20
2897;DHT22;1458;49.728;9.228;2024-03-23T14:14:02;10.90;48.30
2897;DHT22;1458;49.728;9.228;2024-03-23T14:16:29;10.90;49.20
2897;DHT22;1458;49.728;9.228;2024-03-23T14:18:58;10.60;49.20
2897;DHT22;1458;49.728;9.228;2024-03-23T14:21:24;10.50;47.80
2897;DHT22;1458;49.728;9.228;2024-03-23T14:23:51;10.20;50.20
2897;DHT22;1458;49.728;9.228;2024-03-23T14:26:19;10.00;50.80
2897;DHT22;1458;49.728;9.228;2024-03-23T14:28:46;9.90;53.50
2897;DHT22;1458;49.728;9.228;2024-03-23T14:31:13;10.00;52.20
2897;DHT22;1458;49.728;9.228;2024-03-23T14:33:41;10.20;52.20
2897;DHT22;1458;49.728;9.228;2024-03-23T14:36:13;10.30;54.40
2897;DHT22;1458;49.728;9.228;2024-03-23T14:38:42;10.40;51.00
2897;DHT22;1458;49.728;9.228;2024-03-23T14:41:08;10.60;51.10
2897;DHT22;1458;49.728;9.228;2024-03-23T14:43:36;10.50;51.30
2897;DHT22;1458;49.728;9.228;2024-03-23T14:46:06;10.30;50.00
2897;DHT22;1458;49.728;9.228;2024-03-23T14:48:34;10.20;48.10
2897;DHT22;1458;49.728;9.228;2024-03-23T14:51:02;10.00;46.20
2897;DHT22;1458;49.728;9.228;2024-03-23T14:53:33;9.80;48.30
2897;DHT22;1458;49.728;9.228;2024-03-23T14:56:00;9.70;50.50
2897;DHT22;1458;49.728;9.228;2024-03-23T14:58:28;9.60;51.30
2897;DHT22;1458;49.728;9.228;2024-03-23T15:01:00;9.60;51.60
2897;DHT22;1458;49.728;9.228;2024-03-23T15:03:28;9.50;52.00
2897;DHT22;1458;49.728;9.228;2024-03-23T15:05:55;9.40;52.60
2897;DHT22;1458;49.728;9.228;2024-03-23T15:08:23;9.50;53.20
2897;DHT22;1458;49.728;9.228;2024-03-23T15:10:51;9.60;53.00
2897;DHT22;1458;49.728;9.228;2024-03-23T15:13:19;9.50;52.60
2897;DHT22;1458;49.728;9.228;2024-03-23T15:15:48;9.30;53.70
2897;DHT22;1458;49.728;9.228;2024-03-23T15:18:18;9.30;54.50
2897;DHT22;1458;49.728;9.228;2024-03-23T15:20:54;9.20;53.20
2897;DHT22;1458;49.728;9.228;2024-03-23T15:23:22;9.10;53.60
2897;DHT22;1458;49.728;9.228;2024-03-23T15:25:55;9.00;53.70
2897;DHT22;1458;49.728;9.228;2024-03-23T15:28:23;9.10;56.90
2897;DHT22;1458;49.728;9.228;2024-03-23T15:30:52;9.30;54.60
2897;DHT22;1458;49.728;9.228;2024-03-23T15:33:20;9.40;55.80
2897;DHT22;1458;49.728;9.228;2024-03-23T15:35:46;9.40;53.90
2897;DHT22;1458;49.728;9.228;2024-03-23T15:38:13;9.30;55.30
2897;DHT22;1458;49.728;9.228;2024-03-23T15:40:40;9.30;53.30
2897;DHT22;1458;49.728;9.228;2024-03-23T15:43:09;9.20;53.70
2897;DHT22;1458;49.728;9.228;2024-03-23T15:45:35;9.20;56.40
2897;DHT22;1458;49.728;9.228;2024-03-23T15:48:03;9.10;57.70
2897;DHT22;1458;49.728;9.228;2024-03-23T15:50:31;8.50;64.00
2897;DHT22;1458;49.728;9.228;2024-03-23T15:52:58;8.10;68.10
2897;DHT22;1458;49.728;9.228;2024-03-23T15:55:25;7.90;69.90
2897;DHT22;1458;49.728;9.228;2024-03-23T15:57:52;7.70;71.60
2897;DHT22;1458;49.728;9.228;2024-03-23T16:00:20;7.60;74.30
2897;DHT22;1458;49.728;9.228;2024-03-23T16:02:48;7.50;74.90
2897;DHT22;1458;49.728;9.228;2024-03-23T16:05:14;7.60;75.70
2897;DHT22;1458;49.728;9.228;2024-03-23T16:07:42;7.60;74.30
2897;DHT22;1458;49.728;9.228;2024-03-23T16:10:08;7.60;74.40
2897;DHT22;1458;49.728;9.228;2024-03-23T16:12:37;7.50;83.80
2897;DHT22;1458;49.728;9.228;2024-03-23T16:15:06;7.30;88.60
2897;DHT22;1458;49.728;9.228;2024-03-23T16:17:35;7.50;92.00
2897;DHT22;1458;49.728;9.228;2024-03-23T16:20:03;7.80;91.20
2897;DHT22;1458;49.728;9.228;2024-03-23T16:22:34;7.80;87.10
2897;DHT22;1458;49.728;9.228;2024-03-23T16:25:01;7.40;86.90
2897;DHT22;1458;49.728;9.228;2024-03-23T16:27:29;7.20;87.10
2897;DHT22;1458;49.728;9.228;2024-03-23T16:29:55;7.00;86.10
2897;DHT22;1458;49.728;9.228;2024-03-23T16:32:24;6.90;87.90
2897;DHT22;1458;49.728;9.228;2024-03-23T16:34:54;6.80;89.60
2897;DHT22;1458;49.728;9.228;2024-03-23T16:37:22;6.70;90.80
2897;DHT22;1458;49.728;9.228;2024-03-23T16:39:48;6.70;90.60
2897;DHT22;1458;49.728;9.228;2024-03-23T16:42:16;6.60;90.20
2897;DHT22;1458;49.728;9.228;2024-03-23T16:44:42;6.50;90.60
2897;DHT22;1458;49.728;9.228;2024-03-23T16:47:10;6.50;90.00
2897;DHT22;1458;49.728;9.228;2024-03-23T16:49:36;6.50;89.90
2897;DHT22;1458;49.728;9.228;2024-03-23T16:52:05;6.50;88.10
2897;DHT22;1458;49.728;9.228;2024-03-23T16:54:32;6.50;89.20
2897;DHT22;1458;49.728;9.228;2024-03-23T16:56:59;6.50;88.10
2897;DHT22;1458;49.728;9.228;2024-03-23T16:59:25;6.50;86.20
2897;DHT22;1458;49.728;9.228;2024-03-23T17:01:53;6.50;84.90
2897;DHT22;1458;49.728;9.228;2024-03-23T17:04:21;6.50;87.10
2897;DHT22;1458;49.728;9.228;2024-03-23T17:06:49;6.40;89.40
2897;DHT22;1458;49.728;9.228;2024-03-23T17:09:17;6.20;90.80